createdAt,value
2022-12-08T00:01:44.416Z,16.35
2022-12-08T00:04:13.242Z,17.47
2022-12-08T00:07:01.799Z,16.58
2022-12-08T00:09:38.966Z,15.43
2022-12-08T00:12:10.970Z,14.60
2022-12-08T00:14:42.832Z,15.48
2022-12-08T00:17:14.312Z,13.85
2022-12-08T00:19:44.400Z,14.05
2022-12-08T00:22:14.823Z,15.05
2022-12-08T00:24:46.424Z,13.55
2022-12-08T00:27:18.142Z,14.70
2022-12-08T00:29:47.280Z,15.23
2022-12-08T00:32:16.001Z,14.40
2022-12-08T00:34:44.704Z,14.07
2022-12-08T00:37:13.242Z,15.02
2022-12-08T00:39:41.777Z,15.13
2022-12-08T00:42:14.631Z,16.02
2022-12-08T00:44:45.760Z,15.82
2022-12-08T00:47:19.785Z,18.55
2022-12-08T00:49:50.742Z,16.77
2022-12-08T00:52:19.309Z,15.90
2022-12-08T00:54:48.312Z,15.25
2022-12-08T00:57:18.195Z,15.48
2022-12-08T00:59:46.667Z,18.40
2022-12-08T01:02:15.941Z,16.50
2022-12-08T01:04:44.974Z,17.20
2022-12-08T01:07:13.641Z,16.88
2022-12-08T01:09:42.160Z,17.40
2022-12-08T01:12:10.859Z,18.00
2022-12-08T01:14:40.770Z,17.75
2022-12-08T01:17:09.634Z,16.50
2022-12-08T01:19:39.087Z,16.75
2022-12-08T01:22:07.652Z,17.75
2022-12-08T01:24:36.855Z,17.40
2022-12-08T01:27:05.705Z,15.80
2022-12-08T01:29:34.526Z,15.90
2022-12-08T01:32:04.702Z,16.10
2022-12-08T01:34:33.446Z,17.08
2022-12-08T01:37:02.199Z,16.63
2022-12-08T01:39:31.029Z,18.00
2022-12-08T01:41:59.538Z,17.55
2022-12-08T01:45:06.758Z,18.98
2022-12-08T01:47:49.475Z,18.30
2022-12-08T01:50:21.499Z,16.90
2022-12-08T01:52:56.095Z,17.20
2022-12-08T01:55:32.540Z,17.60
2022-12-08T01:58:09.495Z,17.70
2022-12-08T02:00:38.208Z,15.35
2022-12-08T02:03:14.907Z,19.45
2022-12-08T02:05:44.905Z,17.47
2022-12-08T02:08:15.392Z,17.33
2022-12-08T02:10:44.909Z,16.70
2022-12-08T02:13:17.962Z,17.52
2022-12-08T02:16:02.816Z,17.48
2022-12-08T02:19:28.652Z,18.20
2022-12-08T02:21:59.546Z,16.90
2022-12-08T02:24:38.527Z,17.48
2022-12-08T02:27:39.488Z,18.48
2022-12-08T02:30:25.369Z,19.35
2022-12-08T02:33:50.098Z,18.23
2022-12-08T02:36:28.472Z,18.77
2022-12-08T02:39:07.980Z,16.83
2022-12-08T02:41:47.566Z,18.35
2022-12-08T02:44:29.134Z,18.65
2022-12-08T02:47:05.533Z,15.63
2022-12-08T02:49:37.024Z,17.98
2022-12-08T02:52:08.631Z,17.08
2022-12-08T02:54:38.574Z,18.30
2022-12-08T02:57:26.579Z,17.65
2022-12-08T03:00:10.071Z,18.70
2022-12-08T03:02:57.937Z,18.20
2022-12-08T03:05:52.747Z,18.27
2022-12-08T03:08:32.113Z,18.42
2022-12-08T03:11:10.341Z,18.55
2022-12-08T03:13:46.065Z,16.67
2022-12-08T03:16:21.896Z,17.00
2022-12-08T03:18:57.782Z,19.90
2022-12-08T03:21:28.398Z,19.40
2022-12-08T03:23:58.896Z,18.95
2022-12-08T03:26:37.203Z,20.50
2022-12-08T03:29:06.421Z,18.97
2022-12-08T03:31:43.024Z,19.23
2022-12-08T03:34:15.109Z,16.97
2022-12-08T03:36:45.709Z,20.45
2022-12-08T03:39:14.418Z,19.30
2022-12-08T03:41:43.074Z,19.33
2022-12-08T03:44:11.669Z,18.80
2022-12-08T03:46:40.418Z,19.93
2022-12-08T03:49:08.883Z,18.80
2022-12-08T03:51:37.608Z,18.87
2022-12-08T03:54:07.755Z,20.10
2022-12-08T03:56:39.359Z,18.60
2022-12-08T03:59:09.625Z,18.23
2022-12-08T04:01:38.392Z,20.00
2022-12-08T04:04:06.990Z,19.85
2022-12-08T04:06:35.673Z,21.15
2022-12-08T04:09:05.734Z,20.60
2022-12-08T04:11:35.574Z,17.02
2022-12-08T04:14:04.091Z,19.20
2022-12-08T04:16:32.830Z,20.80
2022-12-08T04:19:01.497Z,18.50
2022-12-08T04:21:30.321Z,19.30
2022-12-08T04:24:01.236Z,18.93
2022-12-08T04:26:30.556Z,19.30
2022-12-08T04:29:00.444Z,20.30
2022-12-08T04:31:29.013Z,19.60
2022-12-08T04:33:57.618Z,19.23
2022-12-08T04:36:26.296Z,18.60
2022-12-08T04:38:55.073Z,18.87
2022-12-08T04:41:23.715Z,19.30
2022-12-08T04:43:52.207Z,19.07
2022-12-08T04:46:22.151Z,19.13
2022-12-08T04:48:50.748Z,20.65
2022-12-08T04:51:21.050Z,19.70
2022-12-08T04:53:49.621Z,18.80
2022-12-08T04:56:20.716Z,19.00
2022-12-08T04:58:49.329Z,21.10
2022-12-08T05:01:18.069Z,21.60
2022-12-08T05:03:48.033Z,21.27
2022-12-08T05:06:16.920Z,20.47
2022-12-08T05:08:45.766Z,18.43
2022-12-08T05:11:14.750Z,19.17
2022-12-08T05:13:43.474Z,18.80
2022-12-08T05:16:15.006Z,18.73
2022-12-08T05:18:44.569Z,20.70
2022-12-08T05:21:14.667Z,18.00
2022-12-08T05:23:43.866Z,20.37
2022-12-08T05:26:12.521Z,19.60
2022-12-08T05:28:42.657Z,17.60
2022-12-08T05:31:12.623Z,18.37
2022-12-08T05:33:42.202Z,19.10
2022-12-08T05:36:15.279Z,18.57
2022-12-08T05:38:44.345Z,19.53
2022-12-08T05:41:17.056Z,19.40
2022-12-08T05:43:45.715Z,17.93
2022-12-08T05:46:16.084Z,20.90
2022-12-08T05:48:44.831Z,17.20
2022-12-08T05:51:20.097Z,18.50
2022-12-08T05:53:50.736Z,18.00
2022-12-08T05:56:20.991Z,18.48
2022-12-08T05:58:51.354Z,17.27
2022-12-08T06:01:25.346Z,18.55
2022-12-08T06:03:54.846Z,17.73
2022-12-08T06:06:24.893Z,18.95
2022-12-08T06:08:54.281Z,18.25
2022-12-08T06:11:27.041Z,19.42
2022-12-08T06:13:56.820Z,19.40
2022-12-08T06:16:27.095Z,23.13
2022-12-08T06:18:57.673Z,23.15
2022-12-08T06:21:27.521Z,23.10
2022-12-08T06:23:56.789Z,22.30
2022-12-08T06:26:25.420Z,21.40
2022-12-08T06:28:55.018Z,20.75
2022-12-08T06:31:26.467Z,22.90
2022-12-08T06:33:56.848Z,21.58
2022-12-08T06:36:29.031Z,21.85
2022-12-08T06:38:58.497Z,21.63
2022-12-08T06:41:27.636Z,22.33
2022-12-08T06:43:57.612Z,22.08
2022-12-08T06:46:26.931Z,28.42
2022-12-08T06:48:55.615Z,29.05
2022-12-08T06:51:24.392Z,26.75
2022-12-08T06:53:54.746Z,29.23
2022-12-08T06:56:27.905Z,23.95
2022-12-08T06:58:56.704Z,24.15
2022-12-08T07:01:25.378Z,23.42
2022-12-08T07:03:54.077Z,25.85
2022-12-08T07:06:25.880Z,28.05
2022-12-08T07:08:56.161Z,26.02
2022-12-08T07:11:24.897Z,30.58
2022-12-08T07:13:53.478Z,27.33
2022-12-08T07:16:22.084Z,27.08
2022-12-08T07:18:51.293Z,27.95
2022-12-08T07:21:20.076Z,22.33
2022-12-08T07:23:56.002Z,23.58
2022-12-08T07:26:27.882Z,24.25
2022-12-08T07:28:56.603Z,29.42
2022-12-08T07:31:28.516Z,27.63
2022-12-08T07:33:58.839Z,28.10
2022-12-08T07:36:28.872Z,25.13
2022-12-08T07:38:57.523Z,27.63
2022-12-08T07:41:28.279Z,31.05
2022-12-08T07:43:58.118Z,23.42
2022-12-08T07:46:28.066Z,26.00
2022-12-08T07:48:57.103Z,25.03
2022-12-08T07:51:26.057Z,25.70
2022-12-08T07:53:55.484Z,23.67
2022-12-08T07:56:24.973Z,22.67
2022-12-08T07:58:55.103Z,22.90
2022-12-08T08:01:28.032Z,24.03
2022-12-08T08:04:01.545Z,21.60
2022-12-08T08:06:30.656Z,24.70
2022-12-08T08:08:59.293Z,22.83
2022-12-08T08:11:29.972Z,23.57
2022-12-08T08:14:00.619Z,24.60
2022-12-08T08:16:33.637Z,25.53
2022-12-08T08:19:06.900Z,23.47
2022-12-08T08:21:45.397Z,23.53
2022-12-08T08:24:14.815Z,23.07
2022-12-08T08:26:44.006Z,21.57
2022-12-08T08:29:16.535Z,23.57
2022-12-08T08:31:45.422Z,22.60
2022-12-08T08:34:14.386Z,23.67
2022-12-08T08:36:43.037Z,23.77
2022-12-08T08:39:12.558Z,26.13
2022-12-08T08:41:41.450Z,23.60
2022-12-08T08:44:10.157Z,23.30
2022-12-08T08:46:40.374Z,24.37
2022-12-08T08:49:09.555Z,23.80
2022-12-08T08:51:38.449Z,25.00
2022-12-08T08:54:07.117Z,23.90
2022-12-08T08:56:35.631Z,27.07
2022-12-08T08:59:04.560Z,22.50
2022-12-08T09:01:33.250Z,25.70
2022-12-08T09:04:03.669Z,23.83
2022-12-08T09:06:33.581Z,25.67
2022-12-08T09:09:03.142Z,27.50
2022-12-08T09:11:32.780Z,26.17
2022-12-08T09:14:01.494Z,26.00
2022-12-08T09:16:30.234Z,25.17
2022-12-08T09:18:59.355Z,23.13
2022-12-08T09:21:29.376Z,24.87
2022-12-08T09:24:00.434Z,25.93
2022-12-08T09:26:29.997Z,24.10
2022-12-08T09:29:00.465Z,23.83
2022-12-08T09:31:29.334Z,23.80
2022-12-08T09:33:58.108Z,24.13
2022-12-08T09:36:28.552Z,23.50
2022-12-08T09:38:57.800Z,22.27
2022-12-08T09:41:41.788Z,23.10
2022-12-08T09:44:45.309Z,23.67
2022-12-08T09:47:26.715Z,23.27
2022-12-08T09:50:07.788Z,23.97
2022-12-08T09:52:44.805Z,23.53
2022-12-08T09:55:24.024Z,23.10
2022-12-08T09:58:04.101Z,22.87
2022-12-08T10:00:33.431Z,21.47
2022-12-08T10:03:03.434Z,21.37
2022-12-08T10:05:39.047Z,20.97
2022-12-08T10:08:20.002Z,22.00
2022-12-08T10:10:57.921Z,21.67
2022-12-08T10:13:38.055Z,21.10
2022-12-08T10:16:29.788Z,22.37
2022-12-08T10:19:14.094Z,22.97
2022-12-08T10:21:43.310Z,22.93
2022-12-08T10:24:24.014Z,22.60
2022-12-08T10:26:53.045Z,21.63
2022-12-08T10:29:21.525Z,26.20
2022-12-08T10:31:50.409Z,22.77
2022-12-08T10:34:23.184Z,24.67
2022-12-08T10:36:57.039Z,22.20
2022-12-08T10:39:39.335Z,24.13
2022-12-08T10:42:20.011Z,22.03
2022-12-08T10:45:01.995Z,23.90
2022-12-08T10:47:37.863Z,22.63
2022-12-08T10:50:20.037Z,23.90
2022-12-08T10:52:57.359Z,22.47
2022-12-08T10:55:30.070Z,20.90
2022-12-08T10:57:58.961Z,31.50
2022-12-08T11:00:29.342Z,29.87
2022-12-08T11:03:04.457Z,26.27
2022-12-08T11:05:38.090Z,18.53
2022-12-08T11:08:09.782Z,17.33
2022-12-08T11:10:46.843Z,18.20
2022-12-08T11:13:24.809Z,17.70
2022-12-08T11:15:56.173Z,16.67
2022-12-08T11:18:32.198Z,19.90
2022-12-08T11:21:09.096Z,24.30
2022-12-08T11:23:38.913Z,20.40
2022-12-08T11:26:23.179Z,20.30
2022-12-08T11:28:51.785Z,21.77
2022-12-08T11:31:31.449Z,17.17
2022-12-08T11:34:00.106Z,17.90
2022-12-08T11:36:34.763Z,18.30
2022-12-08T11:39:06.213Z,18.00
2022-12-08T11:41:42.087Z,17.37
2022-12-08T11:44:27.099Z,17.70
2022-12-08T11:47:00.984Z,16.57
2022-12-08T11:49:37.908Z,17.97
2022-12-08T11:52:19.230Z,18.30
2022-12-08T11:54:56.195Z,18.03
2022-12-08T11:57:30.738Z,17.10
2022-12-08T12:00:04.013Z,16.07
2022-12-08T12:02:52.838Z,16.40
2022-12-08T12:08:47.201Z,16.03
2022-12-08T12:11:47.651Z,15.63
2022-12-08T12:14:47.091Z,16.20
2022-12-08T12:17:41.554Z,15.03
2022-12-08T12:20:20.054Z,14.80
2022-12-08T12:22:57.042Z,14.63
2022-12-08T12:25:27.846Z,15.40
2022-12-08T12:28:04.114Z,16.27
2022-12-08T12:30:55.482Z,17.83
2022-12-08T12:33:24.819Z,17.23
2022-12-08T12:35:58.072Z,16.00
2022-12-08T12:38:51.797Z,16.10
2022-12-08T12:41:27.196Z,15.07
2022-12-08T12:44:38.955Z,15.53
2022-12-08T12:47:16.042Z,15.67
2022-12-08T12:50:08.779Z,15.60
2022-12-08T12:52:53.184Z,14.80
2022-12-08T12:55:54.594Z,17.43
2022-12-08T12:58:42.537Z,17.93
2022-12-08T13:01:57.702Z,14.57
2022-12-08T13:04:36.891Z,14.67
2022-12-08T13:07:07.119Z,16.50
2022-12-08T13:09:41.571Z,15.17
2022-12-08T13:12:20.474Z,15.90
2022-12-08T13:14:52.459Z,16.40
2022-12-08T13:17:31.450Z,14.97
2022-12-08T13:20:07.225Z,13.83
2022-12-08T13:23:13.519Z,13.80
2022-12-08T13:25:54.731Z,13.97
2022-12-08T13:28:29.466Z,15.17
2022-12-08T13:31:00.208Z,15.57
2022-12-08T13:33:33.733Z,14.87
2022-12-08T13:36:18.562Z,16.13
2022-12-08T13:38:49.927Z,14.37
2022-12-08T13:41:25.830Z,13.83
2022-12-08T13:45:03.592Z,14.20
2022-12-08T13:58:40.153Z,16.63
2022-12-08T14:01:16.337Z,16.40
2022-12-08T14:04:22.170Z,17.10
2022-12-08T14:06:47.735Z,16.87
2022-12-08T14:09:22.305Z,17.40
2022-12-08T14:11:58.064Z,17.43
2022-12-08T14:15:02.453Z,17.93
2022-12-08T14:17:22.415Z,18.20
2022-12-08T14:19:57.508Z,17.50
2022-12-08T14:22:33.235Z,17.70
2022-12-08T14:25:05.731Z,18.27
2022-12-08T14:27:37.630Z,17.43
2022-12-08T14:30:16.685Z,19.50
2022-12-08T14:32:50.312Z,19.03
2022-12-08T14:35:26.874Z,18.30
2022-12-08T14:37:59.393Z,19.63
2022-12-08T14:40:35.312Z,18.50
2022-12-08T14:43:18.415Z,16.93
2022-12-08T14:45:53.432Z,19.80
2022-12-08T14:48:25.731Z,17.07
2022-12-08T14:51:05.993Z,22.60
2022-12-08T14:53:42.226Z,22.83
2022-12-08T14:56:21.596Z,24.33
2022-12-08T14:59:02.695Z,19.70
2022-12-08T15:01:32.176Z,18.70
2022-12-08T15:04:19.126Z,19.33
2022-12-08T15:06:54.421Z,18.95
2022-12-08T15:09:36.587Z,20.17
2022-12-08T15:12:26.414Z,19.80
2022-12-08T15:15:02.139Z,20.52
2022-12-08T15:17:36.976Z,19.17
2022-12-08T15:20:08.346Z,21.73
2022-12-08T15:22:37.356Z,21.35
2022-12-08T15:25:13.757Z,20.70
2022-12-08T15:27:50.442Z,20.20
2022-12-08T15:30:20.359Z,21.48
2022-12-08T15:32:54.672Z,21.33
2022-12-08T15:35:23.515Z,23.85
2022-12-08T15:37:52.174Z,23.30
2022-12-08T15:40:26.276Z,23.42
2022-12-08T15:42:56.278Z,22.90
2022-12-08T15:45:31.782Z,23.83
2022-12-08T15:48:00.424Z,26.03
2022-12-08T15:50:29.089Z,25.80
2022-12-08T15:52:57.755Z,23.00
2022-12-08T15:55:26.274Z,23.67
2022-12-08T16:00:54.160Z,24.33
2022-12-08T16:04:14.320Z,24.73
2022-12-08T16:09:19.558Z,22.50
2022-12-08T16:12:08.336Z,21.83
2022-12-08T16:17:30.928Z,25.93
2022-12-08T16:20:00.149Z,22.57
2022-12-08T16:25:22.303Z,23.60
2022-12-08T16:28:36.991Z,24.00
2022-12-08T16:30:44.780Z,25.00
2022-12-08T16:33:14.308Z,23.77
2022-12-08T16:35:43.441Z,22.37
2022-12-08T16:38:16.665Z,22.03
2022-12-08T16:41:05.127Z,23.20
2022-12-08T16:43:35.317Z,24.17
2022-12-08T16:46:05.839Z,23.63
2022-12-08T16:48:34.591Z,23.60
2022-12-08T16:51:04.533Z,23.00
2022-12-08T16:53:37.289Z,24.00
2022-12-08T16:56:06.339Z,23.75
2022-12-08T16:58:34.848Z,25.25
2022-12-08T17:01:05.281Z,22.60
2022-12-08T17:03:34.429Z,23.77
2022-12-08T17:06:09.025Z,23.70
2022-12-08T17:08:41.059Z,22.80
2022-12-08T17:11:12.826Z,27.25
2022-12-08T17:13:43.174Z,24.53
2022-12-08T17:16:20.257Z,29.50
2022-12-08T17:18:49.279Z,25.00
2022-12-08T17:21:19.081Z,25.73
2022-12-08T17:23:48.510Z,27.93
2022-12-08T17:26:17.272Z,27.30
2022-12-08T17:29:02.273Z,25.60
2022-12-08T17:31:33.761Z,26.03
2022-12-08T17:34:03.624Z,25.70
2022-12-08T17:36:33.010Z,26.57
2022-12-08T17:39:02.031Z,27.97
2022-12-08T17:41:31.821Z,28.40
2022-12-08T17:44:00.810Z,28.40
2022-12-08T17:46:31.426Z,27.30
2022-12-08T17:49:00.374Z,26.57
2022-12-08T17:51:29.099Z,26.60
2022-12-08T17:54:01.001Z,27.80
2022-12-08T17:56:30.011Z,28.17
2022-12-08T17:59:03.334Z,28.00
2022-12-08T18:01:34.618Z,31.43
2022-12-08T18:04:06.857Z,29.47
2022-12-08T18:06:36.683Z,29.30
2022-12-08T18:09:08.798Z,47.93
2022-12-08T18:11:47.095Z,33.80
2022-12-08T18:14:17.600Z,28.77
2022-12-08T18:16:49.096Z,31.97
2022-12-08T18:19:18.021Z,30.70
2022-12-08T18:21:46.732Z,31.83
2022-12-08T18:24:22.168Z,33.67
2022-12-08T18:26:55.339Z,31.17
2022-12-08T18:29:25.288Z,35.40
2022-12-08T18:31:55.524Z,32.73
2022-12-08T18:34:27.063Z,33.40
2022-12-08T18:36:56.048Z,31.27
2022-12-08T18:39:27.546Z,33.90
2022-12-08T18:41:58.581Z,31.47
2022-12-08T18:44:27.272Z,32.53
2022-12-08T18:46:57.510Z,36.85
2022-12-08T18:49:26.447Z,36.70
2022-12-08T18:51:54.951Z,34.15
2022-12-08T18:54:37.110Z,43.22
2022-12-08T18:57:12.507Z,48.42
2022-12-08T18:59:41.079Z,40.13
2022-12-08T19:02:12.322Z,40.38
2022-12-08T19:04:42.121Z,38.90
2022-12-08T19:07:12.364Z,31.45
2022-12-08T19:09:42.229Z,32.90
2022-12-08T19:12:12.951Z,30.98
2022-12-08T19:14:42.414Z,30.40
2022-12-08T19:17:12.456Z,31.67
2022-12-08T19:19:41.826Z,32.53
2022-12-08T19:22:10.419Z,29.73
2022-12-08T19:24:39.107Z,28.85
2022-12-08T19:27:10.443Z,30.08
2022-12-08T19:29:39.037Z,31.00
2022-12-08T19:32:07.813Z,31.90
2022-12-08T19:34:37.861Z,30.02
2022-12-08T19:37:06.800Z,31.30
2022-12-08T19:39:52.505Z,29.53
2022-12-08T19:42:39.918Z,31.08
2022-12-08T19:45:14.095Z,31.00
2022-12-08T19:47:43.643Z,29.93
2022-12-08T19:50:33.800Z,29.83
2022-12-08T19:53:05.102Z,31.15
2022-12-08T19:55:34.600Z,31.30
2022-12-08T19:58:03.776Z,32.50
2022-12-08T20:00:34.447Z,33.17
2022-12-08T20:03:04.849Z,28.95
2022-12-08T20:05:37.584Z,32.13
2022-12-08T20:08:07.291Z,30.70
2022-12-08T20:10:39.617Z,28.53
2022-12-08T20:13:27.655Z,28.87
2022-12-08T20:15:56.624Z,30.10
2022-12-08T20:18:30.034Z,27.13
2022-12-08T20:21:00.512Z,28.10
2022-12-08T20:23:29.060Z,27.13
2022-12-08T20:25:57.782Z,28.40
2022-12-08T20:28:26.737Z,29.17
2022-12-08T20:30:55.305Z,28.83
2022-12-08T20:33:24.268Z,29.57
2022-12-08T20:36:02.329Z,29.87
2022-12-08T20:38:34.808Z,30.47
2022-12-08T20:41:03.594Z,27.73
2022-12-08T20:43:32.175Z,28.10
2022-12-08T20:46:00.774Z,32.47
2022-12-08T20:48:29.728Z,31.67
2022-12-08T20:50:59.770Z,30.90
2022-12-08T20:53:28.488Z,30.83
2022-12-08T20:55:57.492Z,31.70
2022-12-08T20:58:26.350Z,30.52
2022-12-08T21:00:55.083Z,28.53
2022-12-08T21:03:23.820Z,28.50
2022-12-08T21:05:53.641Z,30.02
2022-12-08T21:08:25.917Z,29.10
2022-12-08T21:10:56.690Z,28.83
2022-12-08T21:13:30.561Z,28.30
2022-12-08T21:15:59.963Z,30.40
2022-12-08T21:18:38.924Z,27.27
2022-12-08T21:21:11.379Z,27.93
2022-12-08T21:23:42.093Z,29.20
2022-12-08T21:26:27.851Z,29.07
2022-12-08T21:28:59.049Z,28.50
2022-12-08T21:31:29.350Z,27.70
2022-12-08T21:33:58.519Z,26.60
2022-12-08T21:36:31.697Z,27.80
2022-12-08T21:39:02.887Z,27.27
2022-12-08T21:41:49.330Z,28.83
2022-12-08T21:44:19.555Z,30.70
2022-12-08T21:46:48.476Z,29.97
2022-12-08T21:49:18.008Z,28.73
2022-12-08T21:51:46.591Z,29.00
2022-12-08T21:54:18.970Z,26.43
2022-12-08T21:56:50.471Z,27.63
2022-12-08T21:59:20.817Z,27.77
2022-12-08T22:01:49.830Z,27.80
2022-12-08T22:04:21.544Z,28.10
2022-12-08T22:06:50.773Z,27.00
2022-12-08T22:09:21.009Z,27.57
2022-12-08T22:11:49.866Z,29.60
2022-12-08T22:14:18.569Z,28.92
2022-12-08T22:16:47.380Z,29.03
2022-12-08T22:19:16.021Z,26.73
2022-12-08T22:21:44.732Z,26.00
2022-12-08T22:24:13.363Z,30.50
2022-12-08T22:26:43.174Z,32.00
2022-12-08T22:29:11.821Z,27.52
2022-12-08T22:31:40.542Z,30.97
2022-12-08T22:34:09.210Z,28.65
2022-12-08T22:36:37.909Z,28.07
2022-12-08T22:39:06.645Z,26.60
2022-12-08T22:41:35.193Z,27.40
2022-12-08T22:44:07.008Z,26.90
2022-12-08T22:46:35.880Z,28.00
2022-12-08T22:49:04.638Z,34.10
2022-12-08T22:51:33.212Z,25.30
2022-12-08T22:54:01.681Z,28.13
2022-12-08T22:56:30.183Z,31.70
2022-12-08T22:58:59.898Z,27.13
2022-12-08T23:01:33.230Z,30.20
2022-12-08T23:04:03.061Z,31.20
2022-12-08T23:06:32.733Z,31.57
2022-12-08T23:09:01.762Z,31.23
2022-12-08T23:11:31.964Z,34.63
2022-12-08T23:14:01.589Z,29.50
2022-12-08T23:16:33.540Z,29.87
2022-12-08T23:19:02.312Z,28.60
2022-12-08T23:21:31.148Z,31.48
2022-12-08T23:24:02.678Z,31.10
2022-12-08T23:26:35.332Z,29.15
2022-12-08T23:29:05.074Z,30.30
2022-12-08T23:31:35.063Z,29.23
2022-12-08T23:34:03.977Z,30.63
2022-12-08T23:36:32.689Z,30.43
2022-12-08T23:39:01.422Z,28.17
2022-12-08T23:41:30.075Z,30.97
2022-12-08T23:43:59.524Z,30.67
2022-12-08T23:46:28.243Z,34.47
2022-12-08T23:48:58.593Z,33.88
2022-12-08T23:51:27.133Z,32.97
2022-12-08T23:53:55.737Z,31.60
2022-12-08T23:56:30.055Z,32.90
2022-12-08T23:58:59.424Z,29.73
